Haddam Neck, Connecticut
Current Conditions -  °F | °C
As of 4:35 AM on Saturday 20 Dec 2014 (Local Time) from KSNC Reporting Station
Clear Clear  
Wind Chill: 22°   Ceiling: Unl
Heat Index: 28°   Visibility: 10mi
Dew Point: 21°   Wind: 6mph
Humidity: 74%   Direction: 360°N
Pressure: 30.19"   Gusts: NA
Location:  41.5612°N, 72.5084°W
Report Text: KSNC 200935Z AUTO 36005KT 10SM CLR M02/M06 A3019 RMK AO2
Loading
Personal Weather Stations






























Interactive Weather Map New forecast layout! Learn more

10-Day Weather Forecast

Advertisements
Track Severe Weather on mobile